Southern Hills, Louisiana
Current Conditions -  °F | °C
As of 8:56 AM on Monday 24 Nov 2014 (Local Time) from KSHV Reporting Station
Few Clouds Few Clouds  
Wind Chill: 51°   Ceiling: Unl
Heat Index: 51°   Visibility: 10mi
Dew Point: 38°   Wind: 14mph
Humidity: 61%   Direction: 300°WNW
Pressure: 29.99"   Gusts: NA
Location:  32.4407°N, 93.7892°W
Report Text: KSHV 241456Z 30012KT 10SM FEW280 11/03 A2999 RMK AO2 SLP155 T01060033 53039
Loading
Personal Weather Stations






























Interactive Weather Map New forecast layout! Learn more

10-Day Weather Forecast

Advertisements
Track Severe Weather on mobile